sensor_id;sensor_type;location;lat;lon;timestamp;P1;durP1;ratioP1;P2;durP2;ratioP2
8490;SDS011;4282;49.986;7.938;2022-11-25T00:01:46;8.10;;;3.47;;
8490;SDS011;4282;49.986;7.938;2022-11-25T00:04:15;12.00;;;3.90;;
8490;SDS011;4282;49.986;7.938;2022-11-25T00:06:44;6.23;;;3.73;;
8490;SDS011;4282;49.986;7.938;2022-11-25T00:09:12;8.50;;;3.27;;
8490;SDS011;4282;49.986;7.938;2022-11-25T00:11:41;5.83;;;3.70;;
8490;SDS011;4282;49.986;7.938;2022-11-25T00:14:11;9.53;;;4.00;;
8490;SDS011;4282;49.986;7.938;2022-11-25T00:16:40;8.70;;;3.60;;
8490;SDS011;4282;49.986;7.938;2022-11-25T00:19:11;8.33;;;3.90;;
8490;SDS011;4282;49.986;7.938;2022-11-25T00:21:39;9.33;;;3.83;;
8490;SDS011;4282;49.986;7.938;2022-11-25T00:24:07;8.17;;;3.90;;
8490;SDS011;4282;49.986;7.938;2022-11-25T00:26:36;8.17;;;3.53;;
8490;SDS011;4282;49.986;7.938;2022-11-25T00:29:05;5.47;;;3.50;;
8490;SDS011;4282;49.986;7.938;2022-11-25T00:31:35;7.50;;;3.07;;
8490;SDS011;4282;49.986;7.938;2022-11-25T00:34:04;8.13;;;3.90;;
8490;SDS011;4282;49.986;7.938;2022-11-25T00:36:36;10.93;;;4.10;;
8490;SDS011;4282;49.986;7.938;2022-11-25T00:39:05;7.60;;;2.97;;
8490;SDS011;4282;49.986;7.938;2022-11-25T00:41:37;7.00;;;2.90;;
8490;SDS011;4282;49.986;7.938;2022-11-25T00:44:18;6.13;;;3.33;;
8490;SDS011;4282;49.986;7.938;2022-11-25T00:46:59;5.73;;;3.60;;
8490;SDS011;4282;49.986;7.938;2022-11-25T00:49:28;11.03;;;4.70;;
8490;SDS011;4282;49.986;7.938;2022-11-25T00:51:59;7.83;;;4.13;;
8490;SDS011;4282;49.986;7.938;2022-11-25T00:54:28;9.93;;;5.00;;
8490;SDS011;4282;49.986;7.938;2022-11-25T00:56:56;8.57;;;4.20;;
8490;SDS011;4282;49.986;7.938;2022-11-25T00:59:25;10.80;;;4.63;;
8490;SDS011;4282;49.986;7.938;2022-11-25T01:01:53;8.93;;;4.33;;
8490;SDS011;4282;49.986;7.938;2022-11-25T01:04:22;6.13;;;4.43;;
8490;SDS011;4282;49.986;7.938;2022-11-25T01:06:50;6.17;;;4.13;;
8490;SDS011;4282;49.986;7.938;2022-11-25T01:09:23;8.00;;;4.37;;
8490;SDS011;4282;49.986;7.938;2022-11-25T01:11:51;11.60;;;4.90;;
8490;SDS011;4282;49.986;7.938;2022-11-25T01:14:20;11.63;;;4.20;;
8490;SDS011;4282;49.986;7.938;2022-11-25T01:16:49;10.10;;;4.93;;
8490;SDS011;4282;49.986;7.938;2022-11-25T01:19:18;8.90;;;5.10;;
8490;SDS011;4282;49.986;7.938;2022-11-25T01:21:46;8.30;;;6.00;;
8490;SDS011;4282;49.986;7.938;2022-11-25T01:24:15;11.17;;;6.43;;
8490;SDS011;4282;49.986;7.938;2022-11-25T01:26:46;11.00;;;5.57;;
8490;SDS011;4282;49.986;7.938;2022-11-25T01:29:15;12.10;;;5.77;;
8490;SDS011;4282;49.986;7.938;2022-11-25T01:31:45;12.73;;;5.83;;
8490;SDS011;4282;49.986;7.938;2022-11-25T01:34:15;13.13;;;6.33;;
8490;SDS011;4282;49.986;7.938;2022-11-25T01:36:45;9.60;;;5.83;;
8490;SDS011;4282;49.986;7.938;2022-11-25T01:39:15;10.27;;;5.50;;
8490;SDS011;4282;49.986;7.938;2022-11-25T01:41:47;9.13;;;5.40;;
8490;SDS011;4282;49.986;7.938;2022-11-25T01:44:16;10.00;;;5.60;;
8490;SDS011;4282;49.986;7.938;2022-11-25T01:46:50;10.37;;;5.57;;
8490;SDS011;4282;49.986;7.938;2022-11-25T01:49:24;9.43;;;6.33;;
8490;SDS011;4282;49.986;7.938;2022-11-25T01:52:00;9.77;;;5.70;;
8490;SDS011;4282;49.986;7.938;2022-11-25T01:54:32;10.43;;;5.27;;
8490;SDS011;4282;49.986;7.938;2022-11-25T01:57:07;10.40;;;5.00;;
8490;SDS011;4282;49.986;7.938;2022-11-25T01:59:39;9.47;;;4.90;;
8490;SDS011;4282;49.986;7.938;2022-11-25T02:02:10;9.37;;;4.57;;
8490;SDS011;4282;49.986;7.938;2022-11-25T02:04:39;5.77;;;3.80;;
8490;SDS011;4282;49.986;7.938;2022-11-25T02:07:08;7.47;;;4.37;;
8490;SDS011;4282;49.986;7.938;2022-11-25T02:09:40;7.90;;;4.63;;
8490;SDS011;4282;49.986;7.938;2022-11-25T02:12:11;6.30;;;3.43;;
8490;SDS011;4282;49.986;7.938;2022-11-25T02:14:41;4.80;;;3.20;;
8490;SDS011;4282;49.986;7.938;2022-11-25T02:17:10;5.03;;;3.67;;
8490;SDS011;4282;49.986;7.938;2022-11-25T02:19:42;5.50;;;3.07;;
8490;SDS011;4282;49.986;7.938;2022-11-25T02:22:19;7.87;;;4.50;;
8490;SDS011;4282;49.986;7.938;2022-11-25T02:24:54;6.07;;;3.47;;
8490;SDS011;4282;49.986;7.938;2022-11-25T02:27:27;6.77;;;3.27;;
8490;SDS011;4282;49.986;7.938;2022-11-25T02:29:56;14.73;;;4.27;;
8490;SDS011;4282;49.986;7.938;2022-11-25T02:32:24;11.13;;;4.20;;
8490;SDS011;4282;49.986;7.938;2022-11-25T02:34:53;9.67;;;3.93;;
8490;SDS011;4282;49.986;7.938;2022-11-25T02:37:21;5.53;;;3.77;;
8490;SDS011;4282;49.986;7.938;2022-11-25T02:39:50;6.03;;;3.20;;
8490;SDS011;4282;49.986;7.938;2022-11-25T02:42:20;13.57;;;4.80;;
8490;SDS011;4282;49.986;7.938;2022-11-25T02:44:51;12.13;;;4.67;;
8490;SDS011;4282;49.986;7.938;2022-11-25T02:47:20;12.63;;;5.23;;
8490;SDS011;4282;49.986;7.938;2022-11-25T02:49:49;12.73;;;4.90;;
8490;SDS011;4282;49.986;7.938;2022-11-25T02:52:17;11.97;;;5.07;;
8490;SDS011;4282;49.986;7.938;2022-11-25T02:54:45;10.53;;;5.37;;
8490;SDS011;4282;49.986;7.938;2022-11-25T02:57:14;16.07;;;5.00;;
8490;SDS011;4282;49.986;7.938;2022-11-25T02:59:42;10.57;;;4.87;;
8490;SDS011;4282;49.986;7.938;2022-11-25T03:02:13;6.17;;;4.17;;
8490;SDS011;4282;49.986;7.938;2022-11-25T03:04:41;10.63;;;4.47;;
8490;SDS011;4282;49.986;7.938;2022-11-25T03:07:09;10.33;;;4.07;;
8490;SDS011;4282;49.986;7.938;2022-11-25T03:09:38;6.50;;;4.10;;
8490;SDS011;4282;49.986;7.938;2022-11-25T03:12:07;9.47;;;4.10;;
8490;SDS011;4282;49.986;7.938;2022-11-25T03:14:48;10.83;;;4.33;;
8490;SDS011;4282;49.986;7.938;2022-11-25T03:17:18;6.97;;;4.53;;
8490;SDS011;4282;49.986;7.938;2022-11-25T03:19:47;8.37;;;4.43;;
8490;SDS011;4282;49.986;7.938;2022-11-25T03:22:15;7.47;;;3.73;;
8490;SDS011;4282;49.986;7.938;2022-11-25T03:24:43;7.17;;;3.77;;
8490;SDS011;4282;49.986;7.938;2022-11-25T03:27:12;6.93;;;3.37;;
8490;SDS011;4282;49.986;7.938;2022-11-25T03:29:40;5.93;;;4.10;;
8490;SDS011;4282;49.986;7.938;2022-11-25T03:32:08;9.03;;;4.27;;
8490;SDS011;4282;49.986;7.938;2022-11-25T03:34:39;9.60;;;4.03;;
8490;SDS011;4282;49.986;7.938;2022-11-25T03:37:08;5.53;;;4.07;;
8490;SDS011;4282;49.986;7.938;2022-11-25T03:39:36;6.30;;;4.23;;
8490;SDS011;4282;49.986;7.938;2022-11-25T03:42:04;9.17;;;4.60;;
8490;SDS011;4282;49.986;7.938;2022-11-25T03:44:33;5.77;;;4.43;;
8490;SDS011;4282;49.986;7.938;2022-11-25T03:47:01;6.37;;;4.63;;
8490;SDS011;4282;49.986;7.938;2022-11-25T03:49:29;8.23;;;4.77;;
8490;SDS011;4282;49.986;7.938;2022-11-25T03:52:00;9.53;;;4.83;;
8490;SDS011;4282;49.986;7.938;2022-11-25T03:54:29;8.00;;;5.00;;
8490;SDS011;4282;49.986;7.938;2022-11-25T03:56:57;8.10;;;4.30;;
8490;SDS011;4282;49.986;7.938;2022-11-25T03:59:25;9.43;;;5.03;;
8490;SDS011;4282;49.986;7.938;2022-11-25T04:01:54;7.50;;;4.53;;
8490;SDS011;4282;49.986;7.938;2022-11-25T04:04:22;6.57;;;4.30;;
8490;SDS011;4282;49.986;7.938;2022-11-25T04:06:51;8.67;;;5.50;;
8490;SDS011;4282;49.986;7.938;2022-11-25T04:09:22;8.33;;;5.53;;
8490;SDS011;4282;49.986;7.938;2022-11-25T04:11:50;13.97;;;6.17;;
8490;SDS011;4282;49.986;7.938;2022-11-25T04:14:31;11.13;;;6.33;;
8490;SDS011;4282;49.986;7.938;2022-11-25T04:16:59;10.90;;;5.33;;
8490;SDS011;4282;49.986;7.938;2022-11-25T04:19:27;8.20;;;5.50;;
8490;SDS011;4282;49.986;7.938;2022-11-25T04:21:56;12.03;;;5.53;;
8490;SDS011;4282;49.986;7.938;2022-11-25T04:24:28;14.00;;;5.73;;
8490;SDS011;4282;49.986;7.938;2022-11-25T04:26:56;8.00;;;5.43;;
8490;SDS011;4282;49.986;7.938;2022-11-25T04:29:24;13.00;;;6.03;;
8490;SDS011;4282;49.986;7.938;2022-11-25T04:31:53;12.00;;;6.53;;
8490;SDS011;4282;49.986;7.938;2022-11-25T04:34:21;13.50;;;5.77;;
8490;SDS011;4282;49.986;7.938;2022-11-25T04:36:49;12.23;;;6.10;;
8490;SDS011;4282;49.986;7.938;2022-11-25T04:39:18;10.70;;;5.53;;
8490;SDS011;4282;49.986;7.938;2022-11-25T04:41:49;10.13;;;5.97;;
8490;SDS011;4282;49.986;7.938;2022-11-25T04:44:37;12.33;;;5.60;;
8490;SDS011;4282;49.986;7.938;2022-11-25T04:47:05;12.43;;;5.93;;
8490;SDS011;4282;49.986;7.938;2022-11-25T04:49:34;11.27;;;5.47;;
8490;SDS011;4282;49.986;7.938;2022-11-25T04:52:02;11.53;;;5.73;;
8490;SDS011;4282;49.986;7.938;2022-11-25T04:54:30;10.57;;;5.23;;
8490;SDS011;4282;49.986;7.938;2022-11-25T04:57:01;10.17;;;5.00;;
8490;SDS011;4282;49.986;7.938;2022-11-25T04:59:30;10.27;;;5.37;;
8490;SDS011;4282;49.986;7.938;2022-11-25T05:02:10;14.63;;;6.10;;
8490;SDS011;4282;49.986;7.938;2022-11-25T05:04:39;13.17;;;6.73;;
8490;SDS011;4282;49.986;7.938;2022-11-25T05:07:08;13.27;;;6.53;;
8490;SDS011;4282;49.986;7.938;2022-11-25T05:09:37;13.70;;;6.97;;
8490;SDS011;4282;49.986;7.938;2022-11-25T05:12:10;10.50;;;5.57;;
8490;SDS011;4282;49.986;7.938;2022-11-25T05:14:39;9.93;;;5.97;;
8490;SDS011;4282;49.986;7.938;2022-11-25T05:17:09;11.70;;;6.30;;
8490;SDS011;4282;49.986;7.938;2022-11-25T05:19:40;11.70;;;6.83;;
8490;SDS011;4282;49.986;7.938;2022-11-25T05:22:10;10.60;;;5.93;;
8490;SDS011;4282;49.986;7.938;2022-11-25T05:24:39;8.77;;;6.23;;
8490;SDS011;4282;49.986;7.938;2022-11-25T05:27:10;12.40;;;6.13;;
8490;SDS011;4282;49.986;7.938;2022-11-25T05:29:38;14.07;;;6.03;;
8490;SDS011;4282;49.986;7.938;2022-11-25T05:32:07;11.50;;;6.30;;
8490;SDS011;4282;49.986;7.938;2022-11-25T05:34:35;18.57;;;6.87;;
8490;SDS011;4282;49.986;7.938;2022-11-25T05:37:04;12.23;;;6.33;;
8490;SDS011;4282;49.986;7.938;2022-11-25T05:39:32;11.30;;;6.37;;
8490;SDS011;4282;49.986;7.938;2022-11-25T05:42:01;10.87;;;6.00;;
8490;SDS011;4282;49.986;7.938;2022-11-25T05:44:32;10.83;;;6.60;;
8490;SDS011;4282;49.986;7.938;2022-11-25T05:47:00;11.93;;;6.47;;
8490;SDS011;4282;49.986;7.938;2022-11-25T05:49:28;15.40;;;6.30;;
8490;SDS011;4282;49.986;7.938;2022-11-25T05:51:57;12.63;;;7.53;;
8490;SDS011;4282;49.986;7.938;2022-11-25T05:54:25;14.40;;;7.13;;
8490;SDS011;4282;49.986;7.938;2022-11-25T05:56:54;12.17;;;6.47;;
8490;SDS011;4282;49.986;7.938;2022-11-25T05:59:22;12.97;;;7.63;;
8490;SDS011;4282;49.986;7.938;2022-11-25T06:01:54;13.80;;;7.83;;
8490;SDS011;4282;49.986;7.938;2022-11-25T06:04:22;11.50;;;7.43;;
8490;SDS011;4282;49.986;7.938;2022-11-25T06:06:50;11.93;;;7.27;;
8490;SDS011;4282;49.986;7.938;2022-11-25T06:09:19;13.27;;;7.90;;
8490;SDS011;4282;49.986;7.938;2022-11-25T06:11:47;14.87;;;8.77;;
8490;SDS011;4282;49.986;7.938;2022-11-25T06:14:15;16.83;;;8.30;;
8490;SDS011;4282;49.986;7.938;2022-11-25T06:16:44;14.10;;;8.70;;
8490;SDS011;4282;49.986;7.938;2022-11-25T06:19:15;13.33;;;8.23;;
8490;SDS011;4282;49.986;7.938;2022-11-25T06:21:43;17.87;;;8.80;;
8490;SDS011;4282;49.986;7.938;2022-11-25T06:24:12;17.67;;;9.23;;
8490;SDS011;4282;49.986;7.938;2022-11-25T06:26:41;16.47;;;8.47;;
8490;SDS011;4282;49.986;7.938;2022-11-25T06:29:09;12.20;;;8.13;;
8490;SDS011;4282;49.986;7.938;2022-11-25T06:31:37;13.60;;;8.33;;
8490;SDS011;4282;49.986;7.938;2022-11-25T06:34:06;16.07;;;7.93;;
8490;SDS011;4282;49.986;7.938;2022-11-25T06:36:37;17.43;;;8.43;;
8490;SDS011;4282;49.986;7.938;2022-11-25T06:39:05;14.07;;;7.20;;
8490;SDS011;4282;49.986;7.938;2022-11-25T06:41:33;12.23;;;7.67;;
8490;SDS011;4282;49.986;7.938;2022-11-25T06:44:02;14.53;;;8.47;;
8490;SDS011;4282;49.986;7.938;2022-11-25T06:46:30;15.90;;;8.40;;
8490;SDS011;4282;49.986;7.938;2022-11-25T06:48:59;14.43;;;8.27;;
8490;SDS011;4282;49.986;7.938;2022-11-25T06:51:27;13.23;;;8.37;;
8490;SDS011;4282;49.986;7.938;2022-11-25T06:53:58;16.97;;;8.97;;
8490;SDS011;4282;49.986;7.938;2022-11-25T06:56:27;13.00;;;8.00;;
8490;SDS011;4282;49.986;7.938;2022-11-25T06:58:55;10.33;;;7.20;;
8490;SDS011;4282;49.986;7.938;2022-11-25T07:01:24;11.83;;;7.20;;
8490;SDS011;4282;49.986;7.938;2022-11-25T07:03:54;13.07;;;7.80;;
8490;SDS011;4282;49.986;7.938;2022-11-25T07:06:23;13.80;;;7.77;;
8490;SDS011;4282;49.986;7.938;2022-11-25T07:08:52;15.57;;;8.07;;
8490;SDS011;4282;49.986;7.938;2022-11-25T07:11:23;10.27;;;6.97;;
8490;SDS011;4282;49.986;7.938;2022-11-25T07:13:53;14.20;;;7.57;;
8490;SDS011;4282;49.986;7.938;2022-11-25T07:16:22;16.03;;;7.50;;
8490;SDS011;4282;49.986;7.938;2022-11-25T07:18:50;11.03;;;6.83;;
8490;SDS011;4282;49.986;7.938;2022-11-25T07:21:20;12.50;;;7.43;;
8490;SDS011;4282;49.986;7.938;2022-11-25T07:23:51;16.90;;;8.13;;
8490;SDS011;4282;49.986;7.938;2022-11-25T07:26:20;11.23;;;6.90;;
8490;SDS011;4282;49.986;7.938;2022-11-25T07:28:52;10.93;;;7.43;;
8490;SDS011;4282;49.986;7.938;2022-11-25T07:31:22;9.80;;;6.93;;
8490;SDS011;4282;49.986;7.938;2022-11-25T07:33:52;12.70;;;7.20;;
8490;SDS011;4282;49.986;7.938;2022-11-25T07:36:21;11.37;;;7.23;;
8490;SDS011;4282;49.986;7.938;2022-11-25T07:38:50;17.40;;;8.33;;
8490;SDS011;4282;49.986;7.938;2022-11-25T07:41:19;15.90;;;8.30;;
8490;SDS011;4282;49.986;7.938;2022-11-25T07:43:52;16.77;;;7.83;;
8490;SDS011;4282;49.986;7.938;2022-11-25T07:46:21;16.50;;;8.60;;
8490;SDS011;4282;49.986;7.938;2022-11-25T07:48:53;16.57;;;8.60;;
8490;SDS011;4282;49.986;7.938;2022-11-25T07:51:23;14.70;;;7.90;;
8490;SDS011;4282;49.986;7.938;2022-11-25T07:53:52;12.83;;;7.70;;
8490;SDS011;4282;49.986;7.938;2022-11-25T07:56:24;13.90;;;7.87;;
8490;SDS011;4282;49.986;7.938;2022-11-25T07:58:53;15.13;;;8.50;;
8490;SDS011;4282;49.986;7.938;2022-11-25T08:01:22;13.33;;;8.37;;
8490;SDS011;4282;49.986;7.938;2022-11-25T08:03:51;13.67;;;8.20;;
8490;SDS011;4282;49.986;7.938;2022-11-25T08:06:21;14.87;;;8.00;;
8490;SDS011;4282;49.986;7.938;2022-11-25T08:08:50;16.47;;;8.67;;
8490;SDS011;4282;49.986;7.938;2022-11-25T08:11:20;14.27;;;8.87;;
8490;SDS011;4282;49.986;7.938;2022-11-25T08:13:52;12.53;;;9.27;;
8490;SDS011;4282;49.986;7.938;2022-11-25T08:16:22;19.03;;;9.67;;
8490;SDS011;4282;49.986;7.938;2022-11-25T08:18:55;15.53;;;8.87;;
8490;SDS011;4282;49.986;7.938;2022-11-25T08:21:24;14.83;;;9.70;;
8490;SDS011;4282;49.986;7.938;2022-11-25T08:23:52;14.67;;;9.27;;
8490;SDS011;4282;49.986;7.938;2022-11-25T08:26:23;14.20;;;8.10;;
8490;SDS011;4282;49.986;7.938;2022-11-25T08:28:57;17.60;;;9.60;;
8490;SDS011;4282;49.986;7.938;2022-11-25T08:31:26;18.97;;;9.13;;
8490;SDS011;4282;49.986;7.938;2022-11-25T08:33:56;15.97;;;9.87;;
8490;SDS011;4282;49.986;7.938;2022-11-25T08:36:25;17.27;;;8.70;;
8490;SDS011;4282;49.986;7.938;2022-11-25T08:38:55;17.53;;;9.73;;
8490;SDS011;4282;49.986;7.938;2022-11-25T08:41:25;15.57;;;9.43;;
8490;SDS011;4282;49.986;7.938;2022-11-25T08:43:58;13.63;;;8.47;;
8490;SDS011;4282;49.986;7.938;2022-11-25T08:46:28;18.97;;;10.23;;
8490;SDS011;4282;49.986;7.938;2022-11-25T08:49:00;14.73;;;8.90;;
8490;SDS011;4282;49.986;7.938;2022-11-25T08:51:31;15.13;;;9.23;;
8490;SDS011;4282;49.986;7.938;2022-11-25T08:54:01;16.13;;;8.93;;
8490;SDS011;4282;49.986;7.938;2022-11-25T08:56:30;12.40;;;8.33;;
8490;SDS011;4282;49.986;7.938;2022-11-25T08:59:01;20.17;;;9.50;;
8490;SDS011;4282;49.986;7.938;2022-11-25T09:01:29;17.37;;;9.27;;
8490;SDS011;4282;49.986;7.938;2022-11-25T09:03:58;14.60;;;8.57;;
8490;SDS011;4282;49.986;7.938;2022-11-25T09:06:26;16.87;;;8.87;;
8490;SDS011;4282;49.986;7.938;2022-11-25T09:08:55;17.13;;;10.13;;
8490;SDS011;4282;49.986;7.938;2022-11-25T09:11:25;12.97;;;9.50;;
8490;SDS011;4282;49.986;7.938;2022-11-25T09:13:54;16.93;;;9.43;;
8490;SDS011;4282;49.986;7.938;2022-11-25T09:16:25;14.33;;;8.67;;
8490;SDS011;4282;49.986;7.938;2022-11-25T09:18:54;16.50;;;9.53;;
8490;SDS011;4282;49.986;7.938;2022-11-25T09:21:24;13.13;;;8.63;;
8490;SDS011;4282;49.986;7.938;2022-11-25T09:23:52;12.97;;;8.47;;
8490;SDS011;4282;49.986;7.938;2022-11-25T09:26:22;15.97;;;9.20;;
8490;SDS011;4282;49.986;7.938;2022-11-25T09:28:52;17.57;;;9.30;;
8490;SDS011;4282;49.986;7.938;2022-11-25T09:31:20;19.57;;;8.37;;
8490;SDS011;4282;49.986;7.938;2022-11-25T09:33:52;15.17;;;9.43;;
8490;SDS011;4282;49.986;7.938;2022-11-25T09:36:20;15.87;;;10.87;;
8490;SDS011;4282;49.986;7.938;2022-11-25T09:38:49;22.57;;;10.63;;
8490;SDS011;4282;49.986;7.938;2022-11-25T09:41:21;15.77;;;10.17;;
8490;SDS011;4282;49.986;7.938;2022-11-25T09:44:08;17.00;;;9.50;;
8490;SDS011;4282;49.986;7.938;2022-11-25T09:46:58;18.40;;;9.77;;
8490;SDS011;4282;49.986;7.938;2022-11-25T09:49:38;15.07;;;10.03;;
8490;SDS011;4282;49.986;7.938;2022-11-25T09:52:15;15.70;;;9.23;;
8490;SDS011;4282;49.986;7.938;2022-11-25T09:54:52;15.80;;;10.70;;
8490;SDS011;4282;49.986;7.938;2022-11-25T09:57:24;18.33;;;10.60;;
8490;SDS011;4282;49.986;7.938;2022-11-25T09:59:58;20.50;;;11.70;;
8490;SDS011;4282;49.986;7.938;2022-11-25T10:02:32;15.07;;;9.67;;
8490;SDS011;4282;49.986;7.938;2022-11-25T10:05:05;16.40;;;10.30;;
8490;SDS011;4282;49.986;7.938;2022-11-25T10:07:40;13.57;;;9.87;;
8490;SDS011;4282;49.986;7.938;2022-11-25T10:10:13;17.77;;;10.60;;
8490;SDS011;4282;49.986;7.938;2022-11-25T10:12:45;15.23;;;9.50;;
8490;SDS011;4282;49.986;7.938;2022-11-25T10:15:16;13.13;;;9.03;;
8490;SDS011;4282;49.986;7.938;2022-11-25T10:17:46;16.00;;;9.03;;
8490;SDS011;4282;49.986;7.938;2022-11-25T10:20:20;17.67;;;9.30;;
8490;SDS011;4282;49.986;7.938;2022-11-25T10:22:51;14.83;;;8.37;;
8490;SDS011;4282;49.986;7.938;2022-11-25T10:25:21;17.63;;;9.10;;
8490;SDS011;4282;49.986;7.938;2022-11-25T10:27:52;18.37;;;10.17;;
8490;SDS011;4282;49.986;7.938;2022-11-25T10:30:24;15.87;;;8.47;;
8490;SDS011;4282;49.986;7.938;2022-11-25T10:32:56;16.20;;;9.67;;
8490;SDS011;4282;49.986;7.938;2022-11-25T10:35:32;14.67;;;9.47;;
8490;SDS011;4282;49.986;7.938;2022-11-25T10:38:03;16.40;;;9.47;;
8490;SDS011;4282;49.986;7.938;2022-11-25T10:40:33;14.43;;;8.30;;
8490;SDS011;4282;49.986;7.938;2022-11-25T10:43:04;12.90;;;8.97;;
8490;SDS011;4282;49.986;7.938;2022-11-25T10:45:40;14.40;;;8.83;;
8490;SDS011;4282;49.986;7.938;2022-11-25T10:48:16;17.23;;;8.90;;
8490;SDS011;4282;49.986;7.938;2022-11-25T10:50:58;14.00;;;8.77;;
8490;SDS011;4282;49.986;7.938;2022-11-25T10:53:32;13.40;;;9.23;;
8490;SDS011;4282;49.986;7.938;2022-11-25T10:56:01;15.30;;;9.60;;
8490;SDS011;4282;49.986;7.938;2022-11-25T10:58:31;16.17;;;9.70;;
8490;SDS011;4282;49.986;7.938;2022-11-25T11:01:02;15.10;;;9.70;;
8490;SDS011;4282;49.986;7.938;2022-11-25T11:03:32;18.43;;;9.93;;
8490;SDS011;4282;49.986;7.938;2022-11-25T11:06:04;22.33;;;9.07;;
8490;SDS011;4282;49.986;7.938;2022-11-25T11:08:36;16.10;;;9.70;;
8490;SDS011;4282;49.986;7.938;2022-11-25T11:11:08;22.57;;;10.57;;
8490;SDS011;4282;49.986;7.938;2022-11-25T11:13:42;17.50;;;10.17;;
8490;SDS011;4282;49.986;7.938;2022-11-25T11:16:20;15.03;;;9.70;;
8490;SDS011;4282;49.986;7.938;2022-11-25T11:18:53;15.57;;;8.93;;
8490;SDS011;4282;49.986;7.938;2022-11-25T11:21:28;13.97;;;9.10;;
8490;SDS011;4282;49.986;7.938;2022-11-25T11:23:57;16.43;;;9.53;;
8490;SDS011;4282;49.986;7.938;2022-11-25T11:26:27;14.87;;;9.40;;
8490;SDS011;4282;49.986;7.938;2022-11-25T11:29:01;14.87;;;8.97;;
8490;SDS011;4282;49.986;7.938;2022-11-25T11:31:32;11.57;;;7.93;;
8490;SDS011;4282;49.986;7.938;2022-11-25T11:36:59;18.10;;;8.10;;
8490;SDS011;4282;49.986;7.938;2022-11-25T11:39:49;15.83;;;8.27;;
8490;SDS011;4282;49.986;7.938;2022-11-25T11:42:29;17.07;;;8.10;;
8490;SDS011;4282;49.986;7.938;2022-11-25T11:45:04;12.37;;;7.93;;
8490;SDS011;4282;49.986;7.938;2022-11-25T11:47:45;12.60;;;8.43;;
8490;SDS011;4282;49.986;7.938;2022-11-25T11:50:22;14.20;;;9.20;;
8490;SDS011;4282;49.986;7.938;2022-11-25T11:52:57;15.13;;;9.17;;
8490;SDS011;4282;49.986;7.938;2022-11-25T11:55:35;15.27;;;9.47;;
8490;SDS011;4282;49.986;7.938;2022-11-25T11:58:12;16.47;;;9.33;;
8490;SDS011;4282;49.986;7.938;2022-11-25T12:00:50;16.13;;;9.10;;
8490;SDS011;4282;49.986;7.938;2022-11-25T12:03:23;16.27;;;9.47;;
8490;SDS011;4282;49.986;7.938;2022-11-25T12:06:00;13.80;;;9.10;;
8490;SDS011;4282;49.986;7.938;2022-11-25T12:08:34;16.03;;;9.50;;
8490;SDS011;4282;49.986;7.938;2022-11-25T12:11:09;18.33;;;9.53;;
8490;SDS011;4282;49.986;7.938;2022-11-25T12:13:41;14.20;;;9.43;;
8490;SDS011;4282;49.986;7.938;2022-11-25T12:16:15;19.47;;;9.73;;
8490;SDS011;4282;49.986;7.938;2022-11-25T12:18:50;12.47;;;8.30;;
8490;SDS011;4282;49.986;7.938;2022-11-25T12:21:40;14.47;;;8.07;;
8490;SDS011;4282;49.986;7.938;2022-11-25T12:24:16;14.97;;;8.67;;
8490;SDS011;4282;49.986;7.938;2022-11-25T12:26:48;13.77;;;9.40;;
8490;SDS011;4282;49.986;7.938;2022-11-25T12:29:21;15.23;;;8.10;;
8490;SDS011;4282;49.986;7.938;2022-11-25T12:31:56;12.73;;;8.13;;
8490;SDS011;4282;49.986;7.938;2022-11-25T12:34:29;13.53;;;8.13;;
8490;SDS011;4282;49.986;7.938;2022-11-25T12:37:03;13.37;;;8.37;;
8490;SDS011;4282;49.986;7.938;2022-11-25T12:39:37;11.17;;;7.97;;
8490;SDS011;4282;49.986;7.938;2022-11-25T12:42:11;14.07;;;7.70;;
8490;SDS011;4282;49.986;7.938;2022-11-25T12:44:47;14.10;;;8.10;;
8490;SDS011;4282;49.986;7.938;2022-11-25T12:47:21;12.30;;;8.53;;
8490;SDS011;4282;49.986;7.938;2022-11-25T12:49:50;12.40;;;7.60;;
8490;SDS011;4282;49.986;7.938;2022-11-25T12:55:16;13.43;;;8.10;;
8490;SDS011;4282;49.986;7.938;2022-11-25T12:57:58;16.50;;;8.53;;
8490;SDS011;4282;49.986;7.938;2022-11-25T13:00:52;13.13;;;7.47;;
8490;SDS011;4282;49.986;7.938;2022-11-25T13:03:37;14.83;;;7.97;;
8490;SDS011;4282;49.986;7.938;2022-11-25T13:06:50;15.33;;;7.50;;
8490;SDS011;4282;49.986;7.938;2022-11-25T13:15:53;11.97;;;8.00;;
8490;SDS011;4282;49.986;7.938;2022-11-25T13:18:23;13.67;;;7.43;;
8490;SDS011;4282;49.986;7.938;2022-11-25T13:20:54;12.97;;;8.13;;
8490;SDS011;4282;49.986;7.938;2022-11-25T13:23:27;15.50;;;8.00;;
8490;SDS011;4282;49.986;7.938;2022-11-25T13:29:00;16.60;;;9.03;;
8490;SDS011;4282;49.986;7.938;2022-11-25T13:31:29;19.70;;;9.00;;
8490;SDS011;4282;49.986;7.938;2022-11-25T13:34:07;14.17;;;9.17;;
8490;SDS011;4282;49.986;7.938;2022-11-25T13:36:49;19.77;;;8.57;;
8490;SDS011;4282;49.986;7.938;2022-11-25T13:39:27;16.10;;;9.60;;
8490;SDS011;4282;49.986;7.938;2022-11-25T13:42:20;14.40;;;8.60;;
8490;SDS011;4282;49.986;7.938;2022-11-25T13:44:57;16.40;;;10.27;;
8490;SDS011;4282;49.986;7.938;2022-11-25T13:47:30;14.27;;;9.87;;
8490;SDS011;4282;49.986;7.938;2022-11-25T13:50:03;18.43;;;8.70;;
8490;SDS011;4282;49.986;7.938;2022-11-25T13:52:37;16.97;;;8.90;;
8490;SDS011;4282;49.986;7.938;2022-11-25T13:55:09;15.80;;;9.03;;
8490;SDS011;4282;49.986;7.938;2022-11-25T13:57:59;10.93;;;7.07;;
8490;SDS011;4282;49.986;7.938;2022-11-25T14:06:36;9.53;;;6.70;;
8490;SDS011;4282;49.986;7.938;2022-11-25T14:09:18;8.97;;;6.73;;
8490;SDS011;4282;49.986;7.938;2022-11-25T14:12:04;11.80;;;6.57;;
8490;SDS011;4282;49.986;7.938;2022-11-25T14:14:45;11.07;;;6.70;;
8490;SDS011;4282;49.986;7.938;2022-11-25T14:17:33;10.23;;;6.80;;
8490;SDS011;4282;49.986;7.938;2022-11-25T14:20:19;14.23;;;6.87;;
8490;SDS011;4282;49.986;7.938;2022-11-25T14:25:47;11.73;;;6.77;;
8490;SDS011;4282;49.986;7.938;2022-11-25T14:28:20;12.73;;;6.80;;
8490;SDS011;4282;49.986;7.938;2022-11-25T14:30:58;12.50;;;6.33;;
8490;SDS011;4282;49.986;7.938;2022-11-25T14:33:31;11.73;;;6.97;;
8490;SDS011;4282;49.986;7.938;2022-11-25T14:36:06;14.77;;;8.90;;
8490;SDS011;4282;49.986;7.938;2022-11-25T14:38:39;12.00;;;6.57;;
8490;SDS011;4282;49.986;7.938;2022-11-25T14:41:13;13.20;;;7.93;;
8490;SDS011;4282;49.986;7.938;2022-11-25T14:43:46;13.33;;;7.73;;
8490;SDS011;4282;49.986;7.938;2022-11-25T14:46:20;12.57;;;6.43;;
8490;SDS011;4282;49.986;7.938;2022-11-25T14:48:52;10.27;;;5.97;;
8490;SDS011;4282;49.986;7.938;2022-11-25T14:51:23;13.53;;;6.67;;
8490;SDS011;4282;49.986;7.938;2022-11-25T14:53:59;13.30;;;6.53;;
8490;SDS011;4282;49.986;7.938;2022-11-25T14:56:30;11.67;;;6.67;;
8490;SDS011;4282;49.986;7.938;2022-11-25T14:58:59;12.97;;;7.37;;
8490;SDS011;4282;49.986;7.938;2022-11-25T15:01:28;10.40;;;4.63;;
8490;SDS011;4282;49.986;7.938;2022-11-25T15:04:02;8.93;;;3.03;;
8490;SDS011;4282;49.986;7.938;2022-11-25T15:06:34;7.43;;;2.87;;
8490;SDS011;4282;49.986;7.938;2022-11-25T15:09:11;8.00;;;2.77;;
8490;SDS011;4282;49.986;7.938;2022-11-25T15:11:45;8.00;;;3.27;;
8490;SDS011;4282;49.986;7.938;2022-11-25T15:14:14;7.30;;;3.00;;
8490;SDS011;4282;49.986;7.938;2022-11-25T15:16:48;6.83;;;2.97;;
8490;SDS011;4282;49.986;7.938;2022-11-25T15:19:17;5.80;;;2.20;;
8490;SDS011;4282;49.986;7.938;2022-11-25T15:21:53;7.47;;;2.83;;
8490;SDS011;4282;49.986;7.938;2022-11-25T15:24:24;9.00;;;3.50;;
8490;SDS011;4282;49.986;7.938;2022-11-25T15:26:55;9.80;;;3.40;;
8490;SDS011;4282;49.986;7.938;2022-11-25T15:29:25;10.73;;;2.80;;
8490;SDS011;4282;49.986;7.938;2022-11-25T15:31:55;6.37;;;2.93;;
8490;SDS011;4282;49.986;7.938;2022-11-25T15:34:24;10.43;;;3.03;;
8490;SDS011;4282;49.986;7.938;2022-11-25T15:36:56;9.33;;;5.17;;
8490;SDS011;4282;49.986;7.938;2022-11-25T15:39:27;13.07;;;6.33;;
8490;SDS011;4282;49.986;7.938;2022-11-25T15:41:56;7.40;;;4.20;;
8490;SDS011;4282;49.986;7.938;2022-11-25T15:44:32;8.43;;;4.40;;
8490;SDS011;4282;49.986;7.938;2022-11-25T15:47:04;10.80;;;4.60;;
8490;SDS011;4282;49.986;7.938;2022-11-25T15:49:34;9.50;;;4.40;;
8490;SDS011;4282;49.986;7.938;2022-11-25T15:52:06;8.70;;;4.43;;
8490;SDS011;4282;49.986;7.938;2022-11-25T15:54:39;6.20;;;4.07;;
8490;SDS011;4282;49.986;7.938;2022-11-25T15:57:14;7.70;;;4.57;;